sensor_id;sensor_type;location;lat;lon;timestamp;temperature;humidity
37432;DHT22;23292;51.300;6.252;2024-01-07T00:00:52;1.90;99.90
37432;DHT22;23292;51.300;6.252;2024-01-07T00:03:19;2.00;99.90
37432;DHT22;23292;51.300;6.252;2024-01-07T00:05:46;2.10;99.90
37432;DHT22;23292;51.300;6.252;2024-01-07T00:08:13;2.10;99.90
37432;DHT22;23292;51.300;6.252;2024-01-07T00:10:40;2.00;99.90
37432;DHT22;23292;51.300;6.252;2024-01-07T00:13:07;2.10;99.90
37432;DHT22;23292;51.300;6.252;2024-01-07T00:15:34;2.00;99.90
37432;DHT22;23292;51.300;6.252;2024-01-07T00:18:01;2.10;99.90
37432;DHT22;23292;51.300;6.252;2024-01-07T00:20:28;2.10;99.90
37432;DHT22;23292;51.300;6.252;2024-01-07T00:22:55;2.10;99.90
37432;DHT22;23292;51.300;6.252;2024-01-07T00:25:23;2.10;99.90
37432;DHT22;23292;51.300;6.252;2024-01-07T00:27:49;2.00;99.90
37432;DHT22;23292;51.300;6.252;2024-01-07T00:30:18;2.00;99.90
37432;DHT22;23292;51.300;6.252;2024-01-07T00:32:47;2.00;99.90
37432;DHT22;23292;51.300;6.252;2024-01-07T00:35:13;2.00;99.90
37432;DHT22;23292;51.300;6.252;2024-01-07T00:37:40;2.00;99.90
37432;DHT22;23292;51.300;6.252;2024-01-07T00:40:08;2.10;99.90
37432;DHT22;23292;51.300;6.252;2024-01-07T00:42:35;2.10;99.90
37432;DHT22;23292;51.300;6.252;2024-01-07T00:45:03;2.00;99.90
37432;DHT22;23292;51.300;6.252;2024-01-07T00:47:30;2.00;99.90
37432;DHT22;23292;51.300;6.252;2024-01-07T00:49:56;2.10;99.90
37432;DHT22;23292;51.300;6.252;2024-01-07T00:52:23;2.00;99.90
37432;DHT22;23292;51.300;6.252;2024-01-07T00:54:50;2.00;99.90
37432;DHT22;23292;51.300;6.252;2024-01-07T00:57:17;2.00;99.90
37432;DHT22;23292;51.300;6.252;2024-01-07T00:59:44;2.00;99.90
37432;DHT22;23292;51.300;6.252;2024-01-07T01:02:11;2.10;99.90
37432;DHT22;23292;51.300;6.252;2024-01-07T01:04:40;2.10;99.90
37432;DHT22;23292;51.300;6.252;2024-01-07T01:07:08;2.00;99.90
37432;DHT22;23292;51.300;6.252;2024-01-07T01:09:35;2.00;99.90
37432;DHT22;23292;51.300;6.252;2024-01-07T01:12:02;2.10;99.90
37432;DHT22;23292;51.300;6.252;2024-01-07T01:14:29;2.10;99.90
37432;DHT22;23292;51.300;6.252;2024-01-07T01:16:56;2.10;99.90
37432;DHT22;23292;51.300;6.252;2024-01-07T01:19:24;2.10;99.90
37432;DHT22;23292;51.300;6.252;2024-01-07T01:21:51;2.00;99.90
37432;DHT22;23292;51.300;6.252;2024-01-07T01:24:17;2.10;99.90
37432;DHT22;23292;51.300;6.252;2024-01-07T01:26:45;2.10;99.90
37432;DHT22;23292;51.300;6.252;2024-01-07T01:29:12;2.10;99.90
37432;DHT22;23292;51.300;6.252;2024-01-07T01:31:39;2.10;99.90
37432;DHT22;23292;51.300;6.252;2024-01-07T01:34:07;2.10;99.90
37432;DHT22;23292;51.300;6.252;2024-01-07T01:36:34;2.10;99.90
37432;DHT22;23292;51.300;6.252;2024-01-07T01:39:01;2.10;99.90
37432;DHT22;23292;51.300;6.252;2024-01-07T01:41:28;2.20;99.90
37432;DHT22;23292;51.300;6.252;2024-01-07T01:44:00;2.10;99.90
37432;DHT22;23292;51.300;6.252;2024-01-07T01:46:27;2.20;99.90
37432;DHT22;23292;51.300;6.252;2024-01-07T01:48:55;2.20;99.90
37432;DHT22;23292;51.300;6.252;2024-01-07T01:51:22;2.20;99.90
37432;DHT22;23292;51.300;6.252;2024-01-07T01:53:50;2.20;99.90
37432;DHT22;23292;51.300;6.252;2024-01-07T01:56:18;2.10;99.90
37432;DHT22;23292;51.300;6.252;2024-01-07T01:58:47;2.10;99.90
37432;DHT22;23292;51.300;6.252;2024-01-07T02:01:17;2.10;99.90
37432;DHT22;23292;51.300;6.252;2024-01-07T02:03:44;2.00;99.90
37432;DHT22;23292;51.300;6.252;2024-01-07T02:06:12;2.00;99.90
37432;DHT22;23292;51.300;6.252;2024-01-07T02:08:39;2.00;99.90
37432;DHT22;23292;51.300;6.252;2024-01-07T02:11:19;2.00;99.90
37432;DHT22;23292;51.300;6.252;2024-01-07T02:13:47;2.00;99.90
37432;DHT22;23292;51.300;6.252;2024-01-07T02:16:14;1.90;99.90
37432;DHT22;23292;51.300;6.252;2024-01-07T02:18:42;1.90;99.90
37432;DHT22;23292;51.300;6.252;2024-01-07T02:21:10;2.00;99.90
37432;DHT22;23292;51.300;6.252;2024-01-07T02:23:37;2.00;99.90
37432;DHT22;23292;51.300;6.252;2024-01-07T02:26:05;2.00;99.90
37432;DHT22;23292;51.300;6.252;2024-01-07T02:28:32;2.00;99.90
37432;DHT22;23292;51.300;6.252;2024-01-07T02:31:00;2.10;99.90
37432;DHT22;23292;51.300;6.252;2024-01-07T02:33:27;2.10;99.90
37432;DHT22;23292;51.300;6.252;2024-01-07T02:35:55;2.00;99.90
37432;DHT22;23292;51.300;6.252;2024-01-07T02:38:23;1.90;99.90
37432;DHT22;23292;51.300;6.252;2024-01-07T02:40:50;2.00;99.90
37432;DHT22;23292;51.300;6.252;2024-01-07T02:43:16;2.10;99.90
37432;DHT22;23292;51.300;6.252;2024-01-07T02:45:43;2.00;99.90
37432;DHT22;23292;51.300;6.252;2024-01-07T02:48:11;2.00;99.90
37432;DHT22;23292;51.300;6.252;2024-01-07T02:50:38;2.00;99.90
37432;DHT22;23292;51.300;6.252;2024-01-07T02:53:05;2.00;99.90
37432;DHT22;23292;51.300;6.252;2024-01-07T02:55:32;2.00;99.90
37432;DHT22;23292;51.300;6.252;2024-01-07T02:57:58;2.10;99.90
37432;DHT22;23292;51.300;6.252;2024-01-07T03:00:25;2.10;99.90
37432;DHT22;23292;51.300;6.252;2024-01-07T03:02:52;2.10;99.90
37432;DHT22;23292;51.300;6.252;2024-01-07T03:05:19;2.00;99.90
37432;DHT22;23292;51.300;6.252;2024-01-07T03:07:46;2.00;99.90
37432;DHT22;23292;51.300;6.252;2024-01-07T03:10:13;1.90;99.90
37432;DHT22;23292;51.300;6.252;2024-01-07T03:12:40;1.90;99.90
37432;DHT22;23292;51.300;6.252;2024-01-07T03:15:07;1.90;99.90
37432;DHT22;23292;51.300;6.252;2024-01-07T03:17:35;1.90;99.90
37432;DHT22;23292;51.300;6.252;2024-01-07T03:20:02;2.00;99.90
37432;DHT22;23292;51.300;6.252;2024-01-07T03:22:29;1.90;99.90
37432;DHT22;23292;51.300;6.252;2024-01-07T03:24:57;1.90;99.90
37432;DHT22;23292;51.300;6.252;2024-01-07T03:27:24;2.00;99.90
37432;DHT22;23292;51.300;6.252;2024-01-07T03:29:51;2.00;99.90
37432;DHT22;23292;51.300;6.252;2024-01-07T03:32:18;1.90;99.90
37432;DHT22;23292;51.300;6.252;2024-01-07T03:34:45;1.90;99.90
37432;DHT22;23292;51.300;6.252;2024-01-07T03:37:12;1.90;99.90
37432;DHT22;23292;51.300;6.252;2024-01-07T03:39:39;1.90;99.90
37432;DHT22;23292;51.300;6.252;2024-01-07T03:42:06;1.80;99.90
37432;DHT22;23292;51.300;6.252;2024-01-07T03:44:38;1.80;99.90
37432;DHT22;23292;51.300;6.252;2024-01-07T03:47:06;1.90;99.90
37432;DHT22;23292;51.300;6.252;2024-01-07T03:49:33;1.80;99.90
37432;DHT22;23292;51.300;6.252;2024-01-07T03:52:00;1.80;99.90
37432;DHT22;23292;51.300;6.252;2024-01-07T03:54:27;1.80;99.90
37432;DHT22;23292;51.300;6.252;2024-01-07T03:56:53;1.90;99.90
37432;DHT22;23292;51.300;6.252;2024-01-07T03:59:20;1.80;99.90
37432;DHT22;23292;51.300;6.252;2024-01-07T04:01:49;1.80;99.90
37432;DHT22;23292;51.300;6.252;2024-01-07T04:04:17;1.80;99.90
37432;DHT22;23292;51.300;6.252;2024-01-07T04:06:43;1.80;99.90
37432;DHT22;23292;51.300;6.252;2024-01-07T04:09:10;1.80;99.90
37432;DHT22;23292;51.300;6.252;2024-01-07T04:11:43;1.90;99.90
37432;DHT22;23292;51.300;6.252;2024-01-07T04:14:10;1.80;99.90
37432;DHT22;23292;51.300;6.252;2024-01-07T04:16:37;1.90;99.90
37432;DHT22;23292;51.300;6.252;2024-01-07T04:19:04;1.80;99.90
37432;DHT22;23292;51.300;6.252;2024-01-07T04:21:31;1.90;99.90
37432;DHT22;23292;51.300;6.252;2024-01-07T04:23:57;1.80;99.90
37432;DHT22;23292;51.300;6.252;2024-01-07T04:26:24;1.90;99.90
37432;DHT22;23292;51.300;6.252;2024-01-07T04:28:51;1.80;99.90
37432;DHT22;23292;51.300;6.252;2024-01-07T04:31:18;1.80;99.90
37432;DHT22;23292;51.300;6.252;2024-01-07T04:33:45;1.80;99.90
37432;DHT22;23292;51.300;6.252;2024-01-07T04:36:12;1.90;99.90
37432;DHT22;23292;51.300;6.252;2024-01-07T04:38:39;1.90;99.90
37432;DHT22;23292;51.300;6.252;2024-01-07T04:41:06;1.90;99.90
37432;DHT22;23292;51.300;6.252;2024-01-07T04:43:34;1.90;99.90
37432;DHT22;23292;51.300;6.252;2024-01-07T04:46:02;1.80;99.90
37432;DHT22;23292;51.300;6.252;2024-01-07T04:48:29;1.70;99.90
37432;DHT22;23292;51.300;6.252;2024-01-07T04:50:56;1.80;99.90
37432;DHT22;23292;51.300;6.252;2024-01-07T04:53:23;1.80;99.90
37432;DHT22;23292;51.300;6.252;2024-01-07T04:55:50;1.70;99.90
37432;DHT22;23292;51.300;6.252;2024-01-07T04:58:16;1.60;99.90
37432;DHT22;23292;51.300;6.252;2024-01-07T05:00:43;1.60;99.90
37432;DHT22;23292;51.300;6.252;2024-01-07T05:03:10;1.50;99.90
37432;DHT22;23292;51.300;6.252;2024-01-07T05:05:38;1.50;99.90
37432;DHT22;23292;51.300;6.252;2024-01-07T05:08:05;1.60;99.90
37432;DHT22;23292;51.300;6.252;2024-01-07T05:10:32;1.60;99.90
37432;DHT22;23292;51.300;6.252;2024-01-07T05:12:59;1.60;99.90
37432;DHT22;23292;51.300;6.252;2024-01-07T05:15:31;1.70;99.90
37432;DHT22;23292;51.300;6.252;2024-01-07T05:17:59;1.60;99.90
37432;DHT22;23292;51.300;6.252;2024-01-07T05:20:26;1.70;99.90
37432;DHT22;23292;51.300;6.252;2024-01-07T05:22:53;1.70;99.90
37432;DHT22;23292;51.300;6.252;2024-01-07T05:25:19;1.60;99.90
37432;DHT22;23292;51.300;6.252;2024-01-07T05:27:46;1.60;99.90
37432;DHT22;23292;51.300;6.252;2024-01-07T05:30:13;1.60;99.90
37432;DHT22;23292;51.300;6.252;2024-01-07T05:32:40;1.50;99.90
37432;DHT22;23292;51.300;6.252;2024-01-07T05:35:07;1.60;99.90
37432;DHT22;23292;51.300;6.252;2024-01-07T05:37:35;1.60;99.90
37432;DHT22;23292;51.300;6.252;2024-01-07T05:40:02;1.70;99.90
37432;DHT22;23292;51.300;6.252;2024-01-07T05:42:29;1.70;99.90
37432;DHT22;23292;51.300;6.252;2024-01-07T05:44:56;1.70;99.90
37432;DHT22;23292;51.300;6.252;2024-01-07T05:47:22;1.60;99.90
37432;DHT22;23292;51.300;6.252;2024-01-07T05:49:50;1.70;99.90
37432;DHT22;23292;51.300;6.252;2024-01-07T05:52:19;1.60;99.90
37432;DHT22;23292;51.300;6.252;2024-01-07T05:54:46;1.70;99.90
37432;DHT22;23292;51.300;6.252;2024-01-07T05:57:12;1.70;99.90
37432;DHT22;23292;51.300;6.252;2024-01-07T05:59:40;1.60;99.90
37432;DHT22;23292;51.300;6.252;2024-01-07T06:02:06;1.60;99.90
37432;DHT22;23292;51.300;6.252;2024-01-07T06:04:33;1.60;99.90
37432;DHT22;23292;51.300;6.252;2024-01-07T06:07:00;1.60;99.90
37432;DHT22;23292;51.300;6.252;2024-01-07T06:09:28;1.60;99.90
37432;DHT22;23292;51.300;6.252;2024-01-07T06:11:55;1.50;99.90
37432;DHT22;23292;51.300;6.252;2024-01-07T06:14:25;1.40;99.90
37432;DHT22;23292;51.300;6.252;2024-01-07T06:16:51;1.40;99.90
37432;DHT22;23292;51.300;6.252;2024-01-07T06:19:19;1.40;99.90
37432;DHT22;23292;51.300;6.252;2024-01-07T06:21:46;1.50;99.90
37432;DHT22;23292;51.300;6.252;2024-01-07T06:24:13;1.60;99.90
37432;DHT22;23292;51.300;6.252;2024-01-07T06:26:40;1.60;99.90
37432;DHT22;23292;51.300;6.252;2024-01-07T06:29:07;1.60;99.90
37432;DHT22;23292;51.300;6.252;2024-01-07T06:31:36;1.50;99.90
37432;DHT22;23292;51.300;6.252;2024-01-07T06:34:03;1.50;99.90
37432;DHT22;23292;51.300;6.252;2024-01-07T06:36:30;1.50;99.90
37432;DHT22;23292;51.300;6.252;2024-01-07T06:38:57;1.40;99.90
37432;DHT22;23292;51.300;6.252;2024-01-07T06:41:23;1.50;99.90
37432;DHT22;23292;51.300;6.252;2024-01-07T06:43:50;1.50;99.90
37432;DHT22;23292;51.300;6.252;2024-01-07T06:46:20;1.50;99.90
37432;DHT22;23292;51.300;6.252;2024-01-07T06:48:47;1.50;99.90
37432;DHT22;23292;51.300;6.252;2024-01-07T06:51:17;1.40;99.90
37432;DHT22;23292;51.300;6.252;2024-01-07T06:53:44;1.40;99.90
37432;DHT22;23292;51.300;6.252;2024-01-07T06:56:13;1.40;99.90
37432;DHT22;23292;51.300;6.252;2024-01-07T06:58:40;1.40;99.90
37432;DHT22;23292;51.300;6.252;2024-01-07T07:01:07;1.40;99.90
37432;DHT22;23292;51.300;6.252;2024-01-07T07:03:34;1.30;99.90
37432;DHT22;23292;51.300;6.252;2024-01-07T07:06:01;1.40;99.90
37432;DHT22;23292;51.300;6.252;2024-01-07T07:08:28;1.40;99.90
37432;DHT22;23292;51.300;6.252;2024-01-07T07:10:55;1.30;99.90
37432;DHT22;23292;51.300;6.252;2024-01-07T07:13:22;1.30;99.90
37432;DHT22;23292;51.300;6.252;2024-01-07T07:15:49;1.40;99.90
37432;DHT22;23292;51.300;6.252;2024-01-07T07:18:16;1.30;99.90
37432;DHT22;23292;51.300;6.252;2024-01-07T07:20:43;1.20;99.90
37432;DHT22;23292;51.300;6.252;2024-01-07T07:23:10;1.30;99.90
37432;DHT22;23292;51.300;6.252;2024-01-07T07:25:37;1.20;99.90
37432;DHT22;23292;51.300;6.252;2024-01-07T07:28:04;1.20;99.90
37432;DHT22;23292;51.300;6.252;2024-01-07T07:30:31;1.20;99.90
37432;DHT22;23292;51.300;6.252;2024-01-07T07:32:58;1.30;99.90
37432;DHT22;23292;51.300;6.252;2024-01-07T07:35:25;1.20;99.90
37432;DHT22;23292;51.300;6.252;2024-01-07T07:37:52;1.20;99.90
37432;DHT22;23292;51.300;6.252;2024-01-07T07:40:19;1.20;99.90
37432;DHT22;23292;51.300;6.252;2024-01-07T07:42:46;1.20;99.90
37432;DHT22;23292;51.300;6.252;2024-01-07T07:45:13;1.20;99.90
37432;DHT22;23292;51.300;6.252;2024-01-07T07:47:40;1.20;99.90
37432;DHT22;23292;51.300;6.252;2024-01-07T07:50:11;1.20;99.90
37432;DHT22;23292;51.300;6.252;2024-01-07T07:52:38;1.30;99.90
37432;DHT22;23292;51.300;6.252;2024-01-07T07:55:05;1.20;99.90
37432;DHT22;23292;51.300;6.252;2024-01-07T07:57:33;1.20;99.90
37432;DHT22;23292;51.300;6.252;2024-01-07T08:00:02;1.20;99.90
37432;DHT22;23292;51.300;6.252;2024-01-07T08:02:31;1.20;99.90
37432;DHT22;23292;51.300;6.252;2024-01-07T08:04:58;1.20;99.90
37432;DHT22;23292;51.300;6.252;2024-01-07T08:07:24;1.30;99.90
37432;DHT22;23292;51.300;6.252;2024-01-07T08:09:52;1.20;99.90
37432;DHT22;23292;51.300;6.252;2024-01-07T08:12:19;1.30;99.90
37432;DHT22;23292;51.300;6.252;2024-01-07T08:14:46;1.20;99.90
37432;DHT22;23292;51.300;6.252;2024-01-07T08:17:13;1.20;99.90
37432;DHT22;23292;51.300;6.252;2024-01-07T08:19:40;1.20;99.90
37432;DHT22;23292;51.300;6.252;2024-01-07T08:22:07;1.20;99.90
37432;DHT22;23292;51.300;6.252;2024-01-07T08:24:36;1.20;99.90
37432;DHT22;23292;51.300;6.252;2024-01-07T08:27:03;1.20;99.90
37432;DHT22;23292;51.300;6.252;2024-01-07T08:29:30;1.20;99.90
37432;DHT22;23292;51.300;6.252;2024-01-07T08:31:58;1.20;99.90
37432;DHT22;23292;51.300;6.252;2024-01-07T08:34:25;1.30;99.90
37432;DHT22;23292;51.300;6.252;2024-01-07T08:36:53;1.20;99.90
37432;DHT22;23292;51.300;6.252;2024-01-07T08:39:20;1.20;99.90
37432;DHT22;23292;51.300;6.252;2024-01-07T08:41:47;1.20;99.90
37432;DHT22;23292;51.300;6.252;2024-01-07T08:44:15;1.20;99.90
37432;DHT22;23292;51.300;6.252;2024-01-07T08:46:41;1.20;99.90
37432;DHT22;23292;51.300;6.252;2024-01-07T08:49:08;1.20;99.90
37432;DHT22;23292;51.300;6.252;2024-01-07T08:51:35;1.20;99.90
37432;DHT22;23292;51.300;6.252;2024-01-07T08:54:03;1.30;99.90
37432;DHT22;23292;51.300;6.252;2024-01-07T08:56:30;1.20;99.90
37432;DHT22;23292;51.300;6.252;2024-01-07T08:58:57;1.20;99.90
37432;DHT22;23292;51.300;6.252;2024-01-07T09:01:25;1.20;99.90
37432;DHT22;23292;51.300;6.252;2024-01-07T09:03:52;1.30;99.90
37432;DHT22;23292;51.300;6.252;2024-01-07T09:06:19;1.30;99.90
37432;DHT22;23292;51.300;6.252;2024-01-07T09:08:46;1.30;99.90
37432;DHT22;23292;51.300;6.252;2024-01-07T09:11:13;1.30;99.90
37432;DHT22;23292;51.300;6.252;2024-01-07T09:13:39;1.30;99.90
37432;DHT22;23292;51.300;6.252;2024-01-07T09:16:10;1.30;99.90
37432;DHT22;23292;51.300;6.252;2024-01-07T09:18:38;1.30;99.90
37432;DHT22;23292;51.300;6.252;2024-01-07T09:21:06;1.40;99.90
37432;DHT22;23292;51.300;6.252;2024-01-07T09:23:33;1.40;99.90
37432;DHT22;23292;51.300;6.252;2024-01-07T09:26:03;1.40;99.90
37432;DHT22;23292;51.300;6.252;2024-01-07T09:28:30;1.20;99.90
37432;DHT22;23292;51.300;6.252;2024-01-07T09:30:57;1.20;99.90
37432;DHT22;23292;51.300;6.252;2024-01-07T09:33:24;1.20;99.90
37432;DHT22;23292;51.300;6.252;2024-01-07T09:35:51;1.20;99.90
37432;DHT22;23292;51.300;6.252;2024-01-07T09:38:18;1.20;99.90
37432;DHT22;23292;51.300;6.252;2024-01-07T09:40:45;1.20;99.90
37432;DHT22;23292;51.300;6.252;2024-01-07T09:43:12;1.30;99.90
37432;DHT22;23292;51.300;6.252;2024-01-07T09:45:41;1.20;99.90
37432;DHT22;23292;51.300;6.252;2024-01-07T09:48:11;1.20;99.90
37432;DHT22;23292;51.300;6.252;2024-01-07T09:50:37;1.20;99.90
37432;DHT22;23292;51.300;6.252;2024-01-07T09:53:05;1.30;99.90
37432;DHT22;23292;51.300;6.252;2024-01-07T09:55:37;1.30;99.90
37432;DHT22;23292;51.300;6.252;2024-01-07T09:58:06;1.30;99.90
37432;DHT22;23292;51.300;6.252;2024-01-07T10:00:33;1.20;99.90
37432;DHT22;23292;51.300;6.252;2024-01-07T10:03:01;1.20;99.90
37432;DHT22;23292;51.300;6.252;2024-01-07T10:05:29;1.20;99.90
37432;DHT22;23292;51.300;6.252;2024-01-07T10:07:56;1.30;99.90
37432;DHT22;23292;51.300;6.252;2024-01-07T10:10:24;1.20;99.90
37432;DHT22;23292;51.300;6.252;2024-01-07T10:12:51;1.20;99.90
37432;DHT22;23292;51.300;6.252;2024-01-07T10:15:19;1.20;99.90
37432;DHT22;23292;51.300;6.252;2024-01-07T10:17:46;1.20;99.90
37432;DHT22;23292;51.300;6.252;2024-01-07T10:20:16;1.20;99.90
37432;DHT22;23292;51.300;6.252;2024-01-07T10:22:49;1.20;99.90
37432;DHT22;23292;51.300;6.252;2024-01-07T10:25:16;1.20;99.90
37432;DHT22;23292;51.300;6.252;2024-01-07T10:27:43;1.10;99.90
37432;DHT22;23292;51.300;6.252;2024-01-07T10:30:10;1.20;99.90
37432;DHT22;23292;51.300;6.252;2024-01-07T10:32:38;1.20;99.90
37432;DHT22;23292;51.300;6.252;2024-01-07T10:35:13;1.20;99.90
37432;DHT22;23292;51.300;6.252;2024-01-07T10:37:41;1.20;99.90
37432;DHT22;23292;51.300;6.252;2024-01-07T10:40:11;1.20;99.90
37432;DHT22;23292;51.300;6.252;2024-01-07T10:42:38;1.20;99.90
37432;DHT22;23292;51.300;6.252;2024-01-07T10:45:06;1.20;99.90
37432;DHT22;23292;51.300;6.252;2024-01-07T10:47:34;1.20;99.90
37432;DHT22;23292;51.300;6.252;2024-01-07T10:50:03;1.30;99.90
37432;DHT22;23292;51.300;6.252;2024-01-07T10:52:32;1.30;99.90
37432;DHT22;23292;51.300;6.252;2024-01-07T10:55:10;1.40;99.90
37432;DHT22;23292;51.300;6.252;2024-01-07T10:57:45;1.40;99.90
37432;DHT22;23292;51.300;6.252;2024-01-07T11:00:14;1.40;99.90
37432;DHT22;23292;51.300;6.252;2024-01-07T11:03:02;1.30;99.90
37432;DHT22;23292;51.300;6.252;2024-01-07T11:10:53;1.20;99.90
37432;DHT22;23292;51.300;6.252;2024-01-07T11:13:35;1.10;99.90
37432;DHT22;23292;51.300;6.252;2024-01-07T11:16:03;1.20;99.90
37432;DHT22;23292;51.300;6.252;2024-01-07T11:18:31;1.20;99.90
37432;DHT22;23292;51.300;6.252;2024-01-07T11:21:01;1.10;99.90
37432;DHT22;23292;51.300;6.252;2024-01-07T11:23:33;1.20;99.90
37432;DHT22;23292;51.300;6.252;2024-01-07T11:26:00;1.20;99.90
37432;DHT22;23292;51.300;6.252;2024-01-07T11:31:09;1.10;99.90
37432;DHT22;23292;51.300;6.252;2024-01-07T11:33:37;1.10;99.90
37432;DHT22;23292;51.300;6.252;2024-01-07T11:36:06;1.20;99.90
37432;DHT22;23292;51.300;6.252;2024-01-07T11:38:34;1.10;99.90
37432;DHT22;23292;51.300;6.252;2024-01-07T11:41:05;1.10;99.90
37432;DHT22;23292;51.300;6.252;2024-01-07T11:43:32;1.10;99.90
37432;DHT22;23292;51.300;6.252;2024-01-07T11:46:03;1.20;99.90
37432;DHT22;23292;51.300;6.252;2024-01-07T11:48:30;1.10;99.90
37432;DHT22;23292;51.300;6.252;2024-01-07T11:50:57;1.00;99.90
37432;DHT22;23292;51.300;6.252;2024-01-07T11:53:24;1.10;99.90
37432;DHT22;23292;51.300;6.252;2024-01-07T11:55:51;1.00;99.90
37432;DHT22;23292;51.300;6.252;2024-01-07T11:58:19;1.10;99.90
37432;DHT22;23292;51.300;6.252;2024-01-07T12:00:46;1.10;99.90
37432;DHT22;23292;51.300;6.252;2024-01-07T12:03:13;1.00;99.90
37432;DHT22;23292;51.300;6.252;2024-01-07T12:05:40;1.00;99.90
37432;DHT22;23292;51.300;6.252;2024-01-07T12:08:10;1.10;99.90
37432;DHT22;23292;51.300;6.252;2024-01-07T12:10:37;1.10;99.90
37432;DHT22;23292;51.300;6.252;2024-01-07T12:13:04;1.10;99.90
37432;DHT22;23292;51.300;6.252;2024-01-07T12:15:32;1.10;99.90
37432;DHT22;23292;51.300;6.252;2024-01-07T12:18:00;1.20;99.90
37432;DHT22;23292;51.300;6.252;2024-01-07T12:20:28;1.10;99.90
37432;DHT22;23292;51.300;6.252;2024-01-07T12:23:08;1.00;99.90
37432;DHT22;23292;51.300;6.252;2024-01-07T12:25:36;0.90;99.90
37432;DHT22;23292;51.300;6.252;2024-01-07T12:28:06;0.90;99.90
37432;DHT22;23292;51.300;6.252;2024-01-07T12:30:33;1.00;99.90
37432;DHT22;23292;51.300;6.252;2024-01-07T12:33:04;1.00;99.90
37432;DHT22;23292;51.300;6.252;2024-01-07T12:35:32;1.10;99.90
37432;DHT22;23292;51.300;6.252;2024-01-07T12:37:59;0.90;99.90
37432;DHT22;23292;51.300;6.252;2024-01-07T12:40:26;1.00;99.90
37432;DHT22;23292;51.300;6.252;2024-01-07T12:42:53;1.00;99.90
37432;DHT22;23292;51.300;6.252;2024-01-07T12:45:20;0.90;99.90
37432;DHT22;23292;51.300;6.252;2024-01-07T12:47:48;0.90;99.90
37432;DHT22;23292;51.300;6.252;2024-01-07T12:50:15;0.90;99.90
37432;DHT22;23292;51.300;6.252;2024-01-07T12:52:43;0.90;99.90
37432;DHT22;23292;51.300;6.252;2024-01-07T12:55:09;0.90;99.90
37432;DHT22;23292;51.300;6.252;2024-01-07T12:57:37;0.90;99.90
37432;DHT22;23292;51.300;6.252;2024-01-07T13:00:04;1.00;99.90
37432;DHT22;23292;51.300;6.252;2024-01-07T13:02:34;1.00;99.90
37432;DHT22;23292;51.300;6.252;2024-01-07T13:05:01;1.00;99.90
37432;DHT22;23292;51.300;6.252;2024-01-07T13:07:31;1.10;99.90
37432;DHT22;23292;51.300;6.252;2024-01-07T13:09:58;1.10;99.90
37432;DHT22;23292;51.300;6.252;2024-01-07T13:12:25;0.90;99.90
37432;DHT22;23292;51.300;6.252;2024-01-07T13:15:09;0.90;99.90
37432;DHT22;23292;51.300;6.252;2024-01-07T13:17:37;0.90;99.90
37432;DHT22;23292;51.300;6.252;2024-01-07T13:20:04;0.90;99.90
37432;DHT22;23292;51.300;6.252;2024-01-07T13:22:33;0.90;99.90
37432;DHT22;23292;51.300;6.252;2024-01-07T13:25:01;0.90;99.90
37432;DHT22;23292;51.300;6.252;2024-01-07T13:27:28;1.00;99.90
37432;DHT22;23292;51.300;6.252;2024-01-07T13:29:57;1.00;99.90
37432;DHT22;23292;51.300;6.252;2024-01-07T13:32:24;0.90;99.90
37432;DHT22;23292;51.300;6.252;2024-01-07T13:34:51;0.80;99.90
37432;DHT22;23292;51.300;6.252;2024-01-07T13:37:18;0.70;99.90
37432;DHT22;23292;51.300;6.252;2024-01-07T13:39:47;0.60;99.90
37432;DHT22;23292;51.300;6.252;2024-01-07T13:42:15;0.60;99.90
37432;DHT22;23292;51.300;6.252;2024-01-07T13:44:42;0.60;99.90
37432;DHT22;23292;51.300;6.252;2024-01-07T13:47:14;0.60;99.90
37432;DHT22;23292;51.300;6.252;2024-01-07T13:49:41;0.50;99.90
37432;DHT22;23292;51.300;6.252;2024-01-07T13:52:08;0.50;99.90
37432;DHT22;23292;51.300;6.252;2024-01-07T13:54:38;0.40;99.90
37432;DHT22;23292;51.300;6.252;2024-01-07T13:57:05;0.40;99.90
37432;DHT22;23292;51.300;6.252;2024-01-07T13:59:33;0.40;99.90
37432;DHT22;23292;51.300;6.252;2024-01-07T14:02:00;0.50;99.90
37432;DHT22;23292;51.300;6.252;2024-01-07T14:04:29;0.40;99.90
37432;DHT22;23292;51.300;6.252;2024-01-07T14:06:57;0.40;99.90
37432;DHT22;23292;51.300;6.252;2024-01-07T14:09:26;0.40;99.90
37432;DHT22;23292;51.300;6.252;2024-01-07T14:11:58;0.40;99.90
37432;DHT22;23292;51.300;6.252;2024-01-07T14:14:26;0.40;99.90
37432;DHT22;23292;51.300;6.252;2024-01-07T14:16:52;0.40;99.90
37432;DHT22;23292;51.300;6.252;2024-01-07T14:19:19;0.30;99.90
37432;DHT22;23292;51.300;6.252;2024-01-07T14:21:47;0.30;99.90
37432;DHT22;23292;51.300;6.252;2024-01-07T14:24:15;0.30;99.90
37432;DHT22;23292;51.300;6.252;2024-01-07T14:26:43;0.30;99.90
37432;DHT22;23292;51.300;6.252;2024-01-07T14:29:09;0.30;99.90
37432;DHT22;23292;51.300;6.252;2024-01-07T14:31:44;0.30;99.90
37432;DHT22;23292;51.300;6.252;2024-01-07T14:34:12;0.20;99.90
37432;DHT22;23292;51.300;6.252;2024-01-07T14:36:40;0.30;99.90
37432;DHT22;23292;51.300;6.252;2024-01-07T14:39:11;0.20;99.90
37432;DHT22;23292;51.300;6.252;2024-01-07T14:41:40;0.20;99.90
37432;DHT22;23292;51.300;6.252;2024-01-07T14:44:07;0.20;99.90
37432;DHT22;23292;51.300;6.252;2024-01-07T14:46:38;0.30;99.90
37432;DHT22;23292;51.300;6.252;2024-01-07T14:49:06;0.30;99.90
37432;DHT22;23292;51.300;6.252;2024-01-07T14:51:34;0.30;99.90
37432;DHT22;23292;51.300;6.252;2024-01-07T14:54:01;0.20;99.90
37432;DHT22;23292;51.300;6.252;2024-01-07T14:56:28;0.20;99.90
37432;DHT22;23292;51.300;6.252;2024-01-07T14:58:55;0.30;99.90
37432;DHT22;23292;51.300;6.252;2024-01-07T15:01:22;0.10;99.90
37432;DHT22;23292;51.300;6.252;2024-01-07T15:03:50;0.20;99.90
37432;DHT22;23292;51.300;6.252;2024-01-07T15:06:17;0.20;99.90
37432;DHT22;23292;51.300;6.252;2024-01-07T15:08:44;0.20;99.90
37432;DHT22;23292;51.300;6.252;2024-01-07T15:11:11;0.20;99.90
37432;DHT22;23292;51.300;6.252;2024-01-07T15:13:38;0.20;99.90
37432;DHT22;23292;51.300;6.252;2024-01-07T15:16:07;0.20;99.90
37432;DHT22;23292;51.300;6.252;2024-01-07T15:18:34;0.30;99.90
37432;DHT22;23292;51.300;6.252;2024-01-07T15:21:04;0.30;99.90
37432;DHT22;23292;51.300;6.252;2024-01-07T15:23:32;0.30;99.90
37432;DHT22;23292;51.300;6.252;2024-01-07T15:25:58;0.30;99.90
37432;DHT22;23292;51.300;6.252;2024-01-07T15:28:25;0.30;99.90
37432;DHT22;23292;51.300;6.252;2024-01-07T15:30:52;0.30;99.90
37432;DHT22;23292;51.300;6.252;2024-01-07T15:33:19;0.30;99.90
37432;DHT22;23292;51.300;6.252;2024-01-07T15:35:47;0.30;99.90
37432;DHT22;23292;51.300;6.252;2024-01-07T15:38:14;0.20;99.90
37432;DHT22;23292;51.300;6.252;2024-01-07T15:40:41;0.20;99.90
37432;DHT22;23292;51.300;6.252;2024-01-07T15:43:09;0.30;99.90
37432;DHT22;23292;51.300;6.252;2024-01-07T15:45:39;0.30;99.90
37432;DHT22;23292;51.300;6.252;2024-01-07T15:48:06;0.30;99.90
37432;DHT22;23292;51.300;6.252;2024-01-07T15:50:33;0.30;99.90
37432;DHT22;23292;51.300;6.252;2024-01-07T15:53:00;0.30;99.90
37432;DHT22;23292;51.300;6.252;2024-01-07T15:55:34;0.30;99.90